Portada
METAR-TAF:

METAR-TAF

Aeroports :

Port-of-Spain, Illa de Trinitat, Trinitat i Tobago

latitud: 10-37N, longitud: 061-21W, altitud: 12 m

Observació

L'informe es va fer fa 35 minuts, a les 22:00 UTC
Vent calma
Temperatura 27°C
Humitat 74%
Pressió 1011 hPa
Visibilitat 10 km o més
Escasses núvols a una alçada de 1800 ft

METAR: TTPP 032200Z 00000KT 9999 FEW018 27/22 Q1011 NOSIG

Hora: 18:35 (22:35 UTC)

Pronòstic

L'informe es va fer fa 6 hores i 35 minuts, a les 16:00 UTC
Pronòstic vàlid del 03 a les 18 UTC al 04 a les 18 UTC
Vent 8 kt del Est
Visibilitat 10 km o més
Núvols disperses a una alçada de 2500 ft
Evolucionant progressivament
l' 04 a les 01 UTC al 04 a les 03 UTC
Vent kt del Nord
Escasses núvols a una alçada de 1800 ft
Evolucionant progressivament
l' 04 a les 11 UTC al 04 a les 13 UTC
Vent 10 kt del Est
Visibilitat 10 km o més
Núvols disperses a una alçada de 2000 ft

TAF: TTPP 031600Z 0318/0418 09008KT 9999 SCT025 BECMG 0401/0403 00000KT FEW018 BECMG 0411/0413 9999 09010KT SCT020

Observacions i pronòstics meteorològics de més de 4000 aeroports (METAR i TAF).

Les estacions disponibles són els punts grocs i vermells al mapa.

Posi el ratolí al punt desitjat per veure el nom de l'estació.

Feu clic per veure les observacions i els pronòstics meteorològics.

Per canviar el mapa: feu clic els botons verds amb una creu de color negre per apropar; al botó verd amb un guió per allunyar la imatge; o en les fletxes verdes per a mapes adjacents.


METAR-TAF: